<?xml version="1.0" encoding="UTF-8" standalone="no" ?>
<gpx xmlns="http://www.topografix.com/GPX/1/1" xmlns:xsi="http://www.w3.org/2001/XMLSchema-instance" xsi:schemaLocation="http://www.topografix.com/GPX/1/1 http://www.topografix.com/GPX/1/1/gpx.xsd" version="1.1" creator="VisuGPX - https://www.visugpx.com">
  <metadata>
    <name>Paros-le Mas Andre</name>
    <desc><![CDATA[Rando gorges du TARN
Paros-Ispagnac_Mas André]]></desc>
  </metadata>
  <trk>
    <name><![CDATA[Paros-Ispagnac]]></name>
    <trkseg>
      <trkpt lat="44.39237" lon="3.50855">
        <ele>883</ele>
        <time>2018-07-28T17:22:10+02:00</time>
      </trkpt>
      <trkpt lat="44.39314" lon="3.50907">
        <ele>869</ele>
        <time>2018-07-28T17:22:15+02:00</time>
      </trkpt>
      <trkpt lat="44.3944" lon="3.50838">
        <ele>876</ele>
        <time>2018-07-28T17:22:20+02:00</time>
      </trkpt>
      <trkpt lat="44.39256" lon="3.51035">
        <ele>862</ele>
        <time>2018-07-28T17:22:25+02:00</time>
      </trkpt>
      <trkpt lat="44.39087" lon="3.51117">
        <ele>841</ele>
        <time>2018-07-28T17:22:30+02:00</time>
      </trkpt>
      <trkpt lat="44.3886" lon="3.51229">
        <ele>818</ele>
        <time>2018-07-28T17:22:35+02:00</time>
      </trkpt>
      <trkpt lat="44.38587" lon="3.51366">
        <ele>805</ele>
        <time>2018-07-28T17:22:40+02:00</time>
      </trkpt>
      <trkpt lat="44.38348" lon="3.51465">
        <ele>780</ele>
        <time>2018-07-28T17:22:45+02:00</time>
      </trkpt>
      <trkpt lat="44.38127" lon="3.51443">
        <ele>757</ele>
        <time>2018-07-28T17:22:50+02:00</time>
      </trkpt>
      <trkpt lat="44.38004" lon="3.51327">
        <ele>764</ele>
        <time>2018-07-28T17:22:55+02:00</time>
      </trkpt>
      <trkpt lat="44.37891" lon="3.51413">
        <ele>738</ele>
        <time>2018-07-28T17:23:00+02:00</time>
      </trkpt>
      <trkpt lat="44.37728" lon="3.51731">
        <ele>666</ele>
        <time>2018-07-28T17:23:05+02:00</time>
      </trkpt>
      <trkpt lat="44.37366" lon="3.51525">
        <ele>743</ele>
        <time>2018-07-28T17:23:10+02:00</time>
      </trkpt>
      <trkpt lat="44.3729" lon="3.51366">
        <ele>797</ele>
        <time>2018-07-28T17:23:15+02:00</time>
      </trkpt>
      <trkpt lat="44.37207" lon="3.51306">
        <ele>831</ele>
        <time>2018-07-28T17:23:20+02:00</time>
      </trkpt>
      <trkpt lat="44.37167" lon="3.5116">
        <ele>860</ele>
        <time>2018-07-28T17:23:25+02:00</time>
      </trkpt>
      <trkpt lat="44.36949" lon="3.50924">
        <ele>906</ele>
        <time>2018-07-28T17:23:30+02:00</time>
      </trkpt>
      <trkpt lat="44.36701" lon="3.50572">
        <ele>917</ele>
        <time>2018-07-28T17:23:35+02:00</time>
      </trkpt>
      <trkpt lat="44.3651" lon="3.5055">
        <ele>914</ele>
        <time>2018-07-28T17:23:40+02:00</time>
      </trkpt>
      <trkpt lat="44.36388" lon="3.50615">
        <ele>921</ele>
        <time>2018-07-28T17:23:45+02:00</time>
      </trkpt>
      <trkpt lat="44.36127" lon="3.50533">
        <ele>925</ele>
        <time>2018-07-28T17:23:50+02:00</time>
      </trkpt>
      <trkpt lat="44.36164" lon="3.5046">
        <ele>931</ele>
        <time>2018-07-28T17:23:55+02:00</time>
      </trkpt>
      <trkpt lat="44.3621" lon="3.50289">
        <ele>943</ele>
        <time>2018-07-28T17:24:00+02:00</time>
      </trkpt>
      <trkpt lat="44.36222" lon="3.5013">
        <ele>951</ele>
        <time>2018-07-28T17:24:05+02:00</time>
      </trkpt>
      <trkpt lat="44.36283" lon="3.50018">
        <ele>955</ele>
        <time>2018-07-28T17:24:10+02:00</time>
      </trkpt>
      <trkpt lat="44.364" lon="3.49864">
        <ele>973</ele>
        <time>2018-07-28T17:24:15+02:00</time>
      </trkpt>
      <trkpt lat="44.36504" lon="3.49868">
        <ele>974</ele>
        <time>2018-07-28T17:24:20+02:00</time>
      </trkpt>
      <trkpt lat="44.36615" lon="3.49812">
        <ele>980</ele>
        <time>2018-07-28T17:24:25+02:00</time>
      </trkpt>
      <trkpt lat="44.36848" lon="3.49894">
        <ele>965</ele>
        <time>2018-07-28T17:24:30+02:00</time>
      </trkpt>
      <trkpt lat="44.37084" lon="3.4986">
        <ele>956</ele>
        <time>2018-07-28T17:24:35+02:00</time>
      </trkpt>
      <trkpt lat="44.37465" lon="3.49649">
        <ele>953</ele>
        <time>2018-07-28T17:24:40+02:00</time>
      </trkpt>
      <trkpt lat="44.37575" lon="3.49641">
        <ele>959</ele>
        <time>2018-07-28T17:24:45+02:00</time>
      </trkpt>
      <trkpt lat="44.37738" lon="3.49396">
        <ele>959</ele>
        <time>2018-07-28T17:24:50+02:00</time>
      </trkpt>
      <trkpt lat="44.38047" lon="3.49417">
        <ele>979</ele>
        <time>2018-07-28T17:24:55+02:00</time>
      </trkpt>
      <trkpt lat="44.38164" lon="3.49542">
        <ele>995</ele>
        <time>2018-07-28T17:25:00+02:00</time>
      </trkpt>
      <trkpt lat="44.38366" lon="3.49576">
        <ele>1008</ele>
        <time>2018-07-28T17:25:05+02:00</time>
      </trkpt>
      <trkpt lat="44.38366" lon="3.49576">
        <ele>1008</ele>
        <time>2018-07-28T17:25:10+02:00</time>
      </trkpt>
      <trkpt lat="44.38507" lon="3.49529">
        <ele>1015</ele>
        <time>2018-07-28T17:25:15+02:00</time>
      </trkpt>
      <trkpt lat="44.38575" lon="3.49473">
        <ele>1013</ele>
        <time>2018-07-28T17:25:20+02:00</time>
      </trkpt>
      <trkpt lat="44.38679" lon="3.49503">
        <ele>1015</ele>
        <time>2018-07-28T17:25:25+02:00</time>
      </trkpt>
      <trkpt lat="44.38762" lon="3.49666">
        <ele>1013</ele>
        <time>2018-07-28T17:25:30+02:00</time>
      </trkpt>
      <trkpt lat="44.38833" lon="3.49804">
        <ele>1003</ele>
        <time>2018-07-28T17:25:35+02:00</time>
      </trkpt>
      <trkpt lat="44.38934" lon="3.49915">
        <ele>985</ele>
        <time>2018-07-28T17:25:40+02:00</time>
      </trkpt>
      <trkpt lat="44.39007" lon="3.50113">
        <ele>966</ele>
        <time>2018-07-28T17:25:45+02:00</time>
      </trkpt>
      <trkpt lat="44.39047" lon="3.50276">
        <ele>955</ele>
        <time>2018-07-28T17:25:50+02:00</time>
      </trkpt>
      <trkpt lat="44.3909" lon="3.50499">
        <ele>929</ele>
        <time>2018-07-28T17:25:55+02:00</time>
      </trkpt>
      <trkpt lat="44.3917" lon="3.50658">
        <ele>917</ele>
        <time>2018-07-28T17:26:00+02:00</time>
      </trkpt>
      <trkpt lat="44.39053" lon="3.50589">
        <ele>913</ele>
        <time>2018-07-28T17:26:05+02:00</time>
      </trkpt>
      <trkpt lat="44.39167" lon="3.50799">
        <ele>881</ele>
        <time>2018-07-28T17:26:10+02:00</time>
      </trkpt>
      <trkpt lat="44.39188" lon="3.50868">
        <ele>869</ele>
        <time>2018-07-28T17:26:15+02:00</time>
      </trkpt>
      <trkpt lat="44.39188" lon="3.50864">
        <ele>870</ele>
        <time>2018-07-28T17:26:20+02:00</time>
      </trkpt>
    </trkseg>
  </trk>
</gpx>